Salvatore — IIYN — position and weather

sailwx.info

Track history (hours):
 
Tides and Currents Weather Stations Pressure Air Temp Water Temp Dewpoint Dewpoint Depression Visibility Wind Speed Wind Dir Waves Ship Positions

Salvatore

Last reported at 2017-Sep-07 11:26 UTC. Time now 2017-Sep-25 13:39 UTC.
Position N 39°40' E 016°31'.
Warning: this ship's position is 18 days out of date.

Length 21 m.

Type: Fishing. MMSI: 247303390.

Date/timePositionNaut miles runAvg speedWind from/ knotsBaromVisibWave heightAir tempDewpointWater temp
2017-Sep-07 11:26N 39°40' E 016°31'2 4.2
2017-Sep-07 11:01N 39°41' E 016°33'3 4.9
2017-Sep-07 10:27N 39°42' E 016°36'4 6.9
2017-Sep-07 09:50N 39°44' E 016°41'3 6.8
2017-Sep-07 09:21N 39°46' E 016°45'2 1.8
2017-Sep-07 08:07N 39°46' E 016°48'0 2.7
2017-Sep-07 08:00N 39°47' E 016°48'1 2.6
2017-Sep-07 07:29N 39°48' E 016°49'4 2.5
2017-Sep-07 06:02N 39°51' E 016°51'1 2.6
2017-Sep-07 05:36N 39°52' E 016°50'1 2.7
2017-Sep-07 05:18N 39°53' E 016°50'6 2.9
2017-Sep-07 03:13N 39°58' E 016°47'2 7.5
2017-Sep-07 03:00N 39°58' E 016°45'4 7.4
2017-Sep-07 02:30N 39°59' E 016°40'1 1.6
2017-Sep-07 02:00N 40°00' E 016°40'1 2.8
2017-Sep-07 01:30N 40°01' E 016°41'1 2.8
2017-Sep-07 01:00N 40°03' E 016°42'1 2.9
2017-Sep-07 00:30N 40°04' E 016°43'5 3.0
2017-Sep-06 22:44N 40°08' E 016°46'1 2.9
2017-Sep-06 22:30N 40°09' E 016°47'2 3.1
2017-Sep-06 21:52N 40°11' E 016°47'0 1.1
2017-Sep-06 21:29N 40°10' E 016°47'1 2.7
2017-Sep-06 20:56N 40°09' E 016°47'1 2.8
2017-Sep-06 20:28N 40°08' E 016°46'3 2.7
2017-Sep-06 19:28N 40°06' E 016°44'1 2.8
2017-Sep-06 19:00N 40°04' E 016°43'1 2.7
2017-Sep-06 18:29N 40°03' E 016°42'1 2.7
2017-Sep-06 18:00N 40°02' E 016°41'3 5.1
2017-Sep-06 17:30N 40°02' E 016°44'1 1.0
2017-Sep-06 17:00N 40°02' E 016°45'1 2.8
2017-Sep-06 16:30N 40°00' E 016°45'1 2.7
2017-Sep-06 16:00N 39°59' E 016°45'1 2.8
2017-Sep-06 15:30N 39°58' E 016°45'2 2.8
2017-Sep-06 14:54N 39°56' E 016°45'1 3.2
2017-Sep-06 14:31N 39°55' E 016°44'1 1.0
2017-Sep-06 13:59N 39°54' E 016°44'1 2.6
2017-Sep-06 13:30N 39°55' E 016°45'1 2.7
2017-Sep-06 13:00N 39°57' E 016°45'1 2.7
2017-Sep-06 12:30N 39°58' E 016°45'3 2.6
2017-Sep-06 11:31N 40°01' E 016°45'1 2.9
2017-Sep-06 11:09N 40°02' E 016°45'0 1.0
2017-Sep-06 11:00N 40°02' E 016°45'1 1.4
2017-Sep-06 10:30N 40°01' E 016°45'1 2.7
2017-Sep-06 10:00N 40°00' E 016°46'1 2.7
2017-Sep-06 09:29N 39°59' E 016°46'1 2.7
2017-Sep-06 08:59N 39°57' E 016°46'4 0.6
2017-Sep-06 01:47N 40°01' E 016°45'1 2.7
2017-Sep-06 01:29N 40°02' E 016°45'4 3.1
2017-Sep-06 00:14N 40°06' E 016°45'0 0.8
2017-Sep-06 00:00N 40°06' E 016°45'2 2.8
2017-Sep-05 23:22N 40°04' E 016°43'1 2.8
2017-Sep-05 22:55N 40°03' E 016°43'1 2.8
2017-Sep-05 22:30N 40°02' E 016°42'7 3.6
2017-Sep-05 20:39N 39°56' E 016°39'10 8.1
2017-Sep-05 19:27N 39°47' E 016°34'4 8.2
2017-Sep-05 19:00N 39°44' E 016°33'4 0.5
2017-Sep-05 11:38N 39°40' E 016°31'0 0.0
2017-Sep-05 11:14N 39°40' E 016°31'1 5.9
2017-Sep-05 11:00N 39°41' E 016°32'4 7.2
2017-Sep-05 10:29N 39°43' E 016°36'17 2.7
2017-Sep-05 04:10N 39°59' E 016°46'5 3.7
2017-Sep-05 02:44N 40°03' E 016°42'1 1.6
2017-Sep-05 02:22N 40°04' E 016°42'1 3.0
2017-Sep-05 01:53N 40°05' E 016°43'6 2.8
2017-Sep-04 23:53N 40°09' E 016°47'1 1.6
2017-Sep-04 23:30N 40°09' E 016°47'13 2.8
2017-Sep-04 18:52N 39°57' E 016°40'1 3.6
2017-Sep-04 18:30N 39°56' E 016°40'3 4.7
2017-Sep-04 17:57N 39°55' E 016°43'1 1.6
2017-Sep-04 17:28N 39°55' E 016°44'2 0.2
2017-Sep-04 07:21N 39°55' E 016°46'1 2.8
2017-Sep-04 07:00N 39°56' E 016°46'16 1.9
2017-Sep-03 22:37N 39°44' E 016°33'  
2017-Aug-31 11:44N 39°40' E 016°31'0 0.0
2017-Aug-31 11:30N 39°40' E 016°31'1 1.6
2017-Aug-31 11:00N 39°40' E 016°32'4 7.3
2017-Aug-31 10:30N 39°42' E 016°36'3 6.9
2017-Aug-31 10:00N 39°44' E 016°40'4 6.7
2017-Aug-31 09:23N 39°46' E 016°45'1 1.1
2017-Aug-31 08:49N 39°46' E 016°45'1 2.7
2017-Aug-31 08:27N 39°47' E 016°46'6 2.3
2017-Aug-31 05:54N 39°52' E 016°51'1 2.4
2017-Aug-31 05:30N 39°52' E 016°50'1 2.5
2017-Aug-31 05:00N 39°53' E 016°49'1 2.5
2017-Aug-31 04:28N 39°55' E 016°48'2 2.6
2017-Aug-31 03:49N 39°56' E 016°47'2 4.1
2017-Aug-31 03:16N 39°58' E 016°46'2 7.7
2017-Aug-31 03:00N 39°59' E 016°43'2 4.2
2017-Aug-31 02:27N 39°59' E 016°40'1 2.9
2017-Aug-31 01:59N 40°01' E 016°41'1 2.9
2017-Aug-31 01:29N 40°02' E 016°42'7 2.9
2017-Aug-30 23:14N 40°08' E 016°46'0 0.8
2017-Aug-30 23:01N 40°08' E 016°46'1 2.0
2017-Aug-30 22:30N 40°07' E 016°45'1 2.9
2017-Aug-30 22:00N 40°06' E 016°44'1 2.8
2017-Aug-30 21:30N 40°04' E 016°43'1 2.8
2017-Aug-30 21:00N 40°03' E 016°42'1 2.9
2017-Aug-30 20:30N 40°02' E 016°41'2 2.9
2017-Aug-30 19:59N 40°01' E 016°40'4 2.9
2017-Aug-30 18:44N 39°57' E 016°40'2 3.7
2017-Aug-30 18:15N 39°56' E 016°41'3 2.7
2017-Aug-30 17:03N 39°55' E 016°45'0 2.8
2017-Aug-30 16:59N 39°55' E 016°45'1 2.6
2017-Aug-30 16:30N 39°57' E 016°46'1 2.7
2017-Aug-30 16:00N 39°58' E 016°46'1 2.7
2017-Aug-30 15:30N 39°59' E 016°46'1 2.7
2017-Aug-30 15:00N 40°01' E 016°46'1 2.3
2017-Aug-30 14:30N 40°02' E 016°45'1 1.3
2017-Aug-30 14:00N 40°01' E 016°45'1 2.8
2017-Aug-30 13:30N 39°60' E 016°46'1 2.8
2017-Aug-30 13:00N 39°58' E 016°46'1 2.7
2017-Aug-30 12:30N 39°57' E 016°47'1 2.1
2017-Aug-30 12:00N 39°56' E 016°47'1 2.5
2017-Aug-30 11:30N 39°55' E 016°47'1 2.6
2017-Aug-30 11:00N 39°54' E 016°48'1 2.4
2017-Aug-30 10:30N 39°53' E 016°49'2 1.9
2017-Aug-30 09:19N 39°51' E 016°51'9 2.5
2017-Aug-30 05:41N 39°60' E 016°46'22 2.9
2017-Aug-29 22:03N 39°40' E 016°32'16 1.2
2017-Aug-29 07:58N 39°48' E 016°50'7 2.1
2017-Aug-29 04:43N 39°55' E 016°48'1 2.6
2017-Aug-29 04:20N 39°56' E 016°47'1 2.2
2017-Aug-29 03:58N 39°57' E 016°47'4 5.9
2017-Aug-29 03:17N 39°57' E 016°42'1 4.1
2017-Aug-29 02:56N 39°57' E 016°40'1 2.3
2017-Aug-29 02:27N 39°58' E 016°39'2 2.9
2017-Aug-29 01:48N 40°00' E 016°40'1 2.9
2017-Aug-29 01:30N 40°01' E 016°41'5 1.7
2017-Aug-28 22:29N 40°05' E 016°44'1 2.8
2017-Aug-28 21:59N 40°04' E 016°43'1 2.8
2017-Aug-28 21:30N 40°03' E 016°42'1 2.8
2017-Aug-28 21:00N 40°02' E 016°41'2 2.8
2017-Aug-28 20:28N 40°00' E 016°40'1 2.9
2017-Aug-28 20:00N 39°59' E 016°40'1 2.9
2017-Aug-28 19:30N 39°58' E 016°40'1 3.0
2017-Aug-28 19:00N 39°56' E 016°40'3 5.2
2017-Aug-28 18:30N 39°54' E 016°40'1 2.0
2017-Aug-28 17:59N 39°53' E 016°41'1 2.7
2017-Aug-28 17:30N 39°54' E 016°42'7 2.3
2017-Aug-28 14:35N 39°60' E 016°46'0 2.7
2017-Aug-28 14:25N 40°00' E 016°45'1 1.7
2017-Aug-28 14:00N 40°01' E 016°45'1 1.4
2017-Aug-28 13:30N 40°00' E 016°46'1 2.6
2017-Aug-28 12:59N 39°59' E 016°46'2 2.7
2017-Aug-28 12:24N 39°57' E 016°47'  
Track history (hours):
 
Tides and Currents Weather Stations Pressure Air Temp Water Temp Dewpoint Dewpoint Depression Visibility Wind Speed Wind Dir Waves Ship Positions

Salvatore

Last reported at 2017-Sep-07 11:26 UTC. Time now 2017-Sep-25 13:39 UTC.
Position N 39°40' E 016°31'.
Warning: this ship's position is 18 days out of date.

Length 21 m.

Type: Fishing. MMSI: 247303390.

Date/timePositionNaut miles runAvg speedWind from/ knotsBaromVisibWave heightAir tempDewpointWater temp
2017-Sep-07 11:26N 39°40' E 016°31'2 4.2
2017-Sep-07 11:01N 39°41' E 016°33'3 4.9
2017-Sep-07 10:27N 39°42' E 016°36'4 6.9
2017-Sep-07 09:50N 39°44' E 016°41'3 6.8
2017-Sep-07 09:21N 39°46' E 016°45'2 1.8
2017-Sep-07 08:07N 39°46' E 016°48'0 2.7
2017-Sep-07 08:00N 39°47' E 016°48'1 2.6
2017-Sep-07 07:29N 39°48' E 016°49'4 2.5
2017-Sep-07 06:02N 39°51' E 016°51'1 2.6
2017-Sep-07 05:36N 39°52' E 016°50'1 2.7
2017-Sep-07 05:18N 39°53' E 016°50'6 2.9
2017-Sep-07 03:13N 39°58' E 016°47'2 7.5
2017-Sep-07 03:00N 39°58' E 016°45'4 7.4
2017-Sep-07 02:30N 39°59' E 016°40'1 1.6
2017-Sep-07 02:00N 40°00' E 016°40'1 2.8
2017-Sep-07 01:30N 40°01' E 016°41'1 2.8
2017-Sep-07 01:00N 40°03' E 016°42'1 2.9
2017-Sep-07 00:30N 40°04' E 016°43'5 3.0
2017-Sep-06 22:44N 40°08' E 016°46'1 2.9
2017-Sep-06 22:30N 40°09' E 016°47'2 3.1
2017-Sep-06 21:52N 40°11' E 016°47'0 1.1
2017-Sep-06 21:29N 40°10' E 016°47'1 2.7
2017-Sep-06 20:56N 40°09' E 016°47'1 2.8
2017-Sep-06 20:28N 40°08' E 016°46'3 2.7
2017-Sep-06 19:28N 40°06' E 016°44'1 2.8
2017-Sep-06 19:00N 40°04' E 016°43'1 2.7
2017-Sep-06 18:29N 40°03' E 016°42'1 2.7
2017-Sep-06 18:00N 40°02' E 016°41'3 5.1
2017-Sep-06 17:30N 40°02' E 016°44'1 1.0
2017-Sep-06 17:00N 40°02' E 016°45'1 2.8
2017-Sep-06 16:30N 40°00' E 016°45'1 2.7
2017-Sep-06 16:00N 39°59' E 016°45'1 2.8
2017-Sep-06 15:30N 39°58' E 016°45'2 2.8
2017-Sep-06 14:54N 39°56' E 016°45'1 3.2
2017-Sep-06 14:31N 39°55' E 016°44'1 1.0
2017-Sep-06 13:59N 39°54' E 016°44'1 2.6
2017-Sep-06 13:30N 39°55' E 016°45'1 2.7
2017-Sep-06 13:00N 39°57' E 016°45'1 2.7
2017-Sep-06 12:30N 39°58' E 016°45'3 2.6
2017-Sep-06 11:31N 40°01' E 016°45'1 2.9
2017-Sep-06 11:09N 40°02' E 016°45'0 1.0
2017-Sep-06 11:00N 40°02' E 016°45'1 1.4
2017-Sep-06 10:30N 40°01' E 016°45'1 2.7
2017-Sep-06 10:00N 40°00' E 016°46'1 2.7
2017-Sep-06 09:29N 39°59' E 016°46'1 2.7
2017-Sep-06 08:59N 39°57' E 016°46'4 0.6
2017-Sep-06 01:47N 40°01' E 016°45'1 2.7
2017-Sep-06 01:29N 40°02' E 016°45'4 3.1
2017-Sep-06 00:14N 40°06' E 016°45'0 0.8
2017-Sep-06 00:00N 40°06' E 016°45'2 2.8
2017-Sep-05 23:22N 40°04' E 016°43'1 2.8
2017-Sep-05 22:55N 40°03' E 016°43'1 2.8
2017-Sep-05 22:30N 40°02' E 016°42'7 3.6
2017-Sep-05 20:39N 39°56' E 016°39'10 8.1
2017-Sep-05 19:27N 39°47' E 016°34'4 8.2
2017-Sep-05 19:00N 39°44' E 016°33'4 0.5
2017-Sep-05 11:38N 39°40' E 016°31'0 0.0
2017-Sep-05 11:14N 39°40' E 016°31'1 5.9
2017-Sep-05 11:00N 39°41' E 016°32'4 7.2
2017-Sep-05 10:29N 39°43' E 016°36'17 2.7
2017-Sep-05 04:10N 39°59' E 016°46'5 3.7
2017-Sep-05 02:44N 40°03' E 016°42'1 1.6
2017-Sep-05 02:22N 40°04' E 016°42'1 3.0
2017-Sep-05 01:53N 40°05' E 016°43'6 2.8
2017-Sep-04 23:53N 40°09' E 016°47'1 1.6
2017-Sep-04 23:30N 40°09' E 016°47'13 2.8
2017-Sep-04 18:52N 39°57' E 016°40'1 3.6
2017-Sep-04 18:30N 39°56' E 016°40'3 4.7
2017-Sep-04 17:57N 39°55' E 016°43'1 1.6
2017-Sep-04 17:28N 39°55' E 016°44'2 0.2
2017-Sep-04 07:21N 39°55' E 016°46'1 2.8
2017-Sep-04 07:00N 39°56' E 016°46'16 1.9
2017-Sep-03 22:37N 39°44' E 016°33'  
2017-Aug-31 11:44N 39°40' E 016°31'0 0.0
2017-Aug-31 11:30N 39°40' E 016°31'1 1.6
2017-Aug-31 11:00N 39°40' E 016°32'4 7.3
2017-Aug-31 10:30N 39°42' E 016°36'3 6.9
2017-Aug-31 10:00N 39°44' E 016°40'4 6.7
2017-Aug-31 09:23N 39°46' E 016°45'1 1.1
2017-Aug-31 08:49N 39°46' E 016°45'1 2.7
2017-Aug-31 08:27N 39°47' E 016°46'6 2.3
2017-Aug-31 05:54N 39°52' E 016°51'1 2.4
2017-Aug-31 05:30N 39°52' E 016°50'1 2.5
2017-Aug-31 05:00N 39°53' E 016°49'1 2.5
2017-Aug-31 04:28N 39°55' E 016°48'2 2.6
2017-Aug-31 03:49N 39°56' E 016°47'2 4.1
2017-Aug-31 03:16N 39°58' E 016°46'2 7.7
2017-Aug-31 03:00N 39°59' E 016°43'2 4.2
2017-Aug-31 02:27N 39°59' E 016°40'1 2.9
2017-Aug-31 01:59N 40°01' E 016°41'1 2.9
2017-Aug-31 01:29N 40°02' E 016°42'7 2.9
2017-Aug-30 23:14N 40°08' E 016°46'0 0.8
2017-Aug-30 23:01N 40°08' E 016°46'1 2.0
2017-Aug-30 22:30N 40°07' E 016°45'1 2.9
2017-Aug-30 22:00N 40°06' E 016°44'1 2.8
2017-Aug-30 21:30N 40°04' E 016°43'1 2.8
2017-Aug-30 21:00N 40°03' E 016°42'1 2.9
2017-Aug-30 20:30N 40°02' E 016°41'2 2.9
2017-Aug-30 19:59N 40°01' E 016°40'4 2.9
2017-Aug-30 18:44N 39°57' E 016°40'2 3.7
2017-Aug-30 18:15N 39°56' E 016°41'3 2.7
2017-Aug-30 17:03N 39°55' E 016°45'0 2.8
2017-Aug-30 16:59N 39°55' E 016°45'1 2.6
2017-Aug-30 16:30N 39°57' E 016°46'1 2.7
2017-Aug-30 16:00N 39°58' E 016°46'1 2.7
2017-Aug-30 15:30N 39°59' E 016°46'1 2.7
2017-Aug-30 15:00N 40°01' E 016°46'1 2.3
2017-Aug-30 14:30N 40°02' E 016°45'1 1.3
2017-Aug-30 14:00N 40°01' E 016°45'1 2.8
2017-Aug-30 13:30N 39°60' E 016°46'1 2.8
2017-Aug-30 13:00N 39°58' E 016°46'1 2.7
2017-Aug-30 12:30N 39°57' E 016°47'1 2.1
2017-Aug-30 12:00N 39°56' E 016°47'1 2.5
2017-Aug-30 11:30N 39°55' E 016°47'1 2.6
2017-Aug-30 11:00N 39°54' E 016°48'1 2.4
2017-Aug-30 10:30N 39°53' E 016°49'2 1.9
2017-Aug-30 09:19N 39°51' E 016°51'9 2.5
2017-Aug-30 05:41N 39°60' E 016°46'22 2.9
2017-Aug-29 22:03N 39°40' E 016°32'16 1.2
2017-Aug-29 07:58N 39°48' E 016°50'7 2.1
2017-Aug-29 04:43N 39°55' E 016°48'1 2.6
2017-Aug-29 04:20N 39°56' E 016°47'1 2.2
2017-Aug-29 03:58N 39°57' E 016°47'4 5.9
2017-Aug-29 03:17N 39°57' E 016°42'1 4.1
2017-Aug-29 02:56N 39°57' E 016°40'1 2.3
2017-Aug-29 02:27N 39°58' E 016°39'2 2.9
2017-Aug-29 01:48N 40°00' E 016°40'1 2.9
2017-Aug-29 01:30N 40°01' E 016°41'5 1.7
2017-Aug-28 22:29N 40°05' E 016°44'1 2.8
2017-Aug-28 21:59N 40°04' E 016°43'1 2.8
2017-Aug-28 21:30N 40°03' E 016°42'1 2.8
2017-Aug-28 21:00N 40°02' E 016°41'2 2.8
2017-Aug-28 20:28N 40°00' E 016°40'1 2.9
2017-Aug-28 20:00N 39°59' E 016°40'1 2.9
2017-Aug-28 19:30N 39°58' E 016°40'1 3.0
2017-Aug-28 19:00N 39°56' E 016°40'3 5.2
2017-Aug-28 18:30N 39°54' E 016°40'1 2.0
2017-Aug-28 17:59N 39°53' E 016°41'1 2.7
2017-Aug-28 17:30N 39°54' E 016°42'7 2.3
2017-Aug-28 14:35N 39°60' E 016°46'0 2.7
2017-Aug-28 14:25N 40°00' E 016°45'1 1.7
2017-Aug-28 14:00N 40°01' E 016°45'1 1.4
2017-Aug-28 13:30N 40°00' E 016°46'1 2.6
2017-Aug-28 12:59N 39°59' E 016°46'2 2.7
2017-Aug-28 12:24N 39°57' E 016°47'  

Dump ship's entire track history